Time;durP1;ratioP1;P1;durP2;ratioP2;P2;SDS_P1;SDS_P2;PMS_P1;PMS_P2;Temp;Humidity;BMP_temperature;BMP_pressure;BME280_temperature;BME280_humidity;BME280_pressure;Samples;Min_cycle;Max_cycle;Signal;HPM_P1;HPM_P2
2024/02/15 00:00:46;;;;;;;6.37;4.10;;;8.70;99.90;;;;;;493972;241;27902;-72
2024/02/15 00:02:47;;;;;;;13.33;5.03;;;8.80;99.90;;;;;;493880;237;27942;-72
2024/02/15 00:04:48;;;;;;;6.73;4.30;;;8.80;99.90;;;;;;493967;237;27718;-72
2024/02/15 00:06:50;;;;;;;6.80;4.60;;;8.80;99.90;;;;;;493952;241;28041;-72
2024/02/15 00:08:52;;;;;;;10.80;5.30;;;8.90;99.90;;;;;;493955;241;27933;-76
2024/02/15 00:10:53;;;;;;;7.33;4.57;;;8.90;99.90;;;;;;493788;241;28114;-72
2024/02/15 00:12:54;;;;;;;11.87;4.83;;;8.90;99.90;;;;;;493979;237;28027;-74
2024/02/15 00:14:58;;;;;;;9.13;4.60;;;8.90;99.90;;;;;;493967;241;28556;-72
2024/02/15 00:16:56;;;;;;;8.67;4.70;;;9.00;99.90;;;;;;493635;241;28600;-72
2024/02/15 00:18:57;;;;;;;8.10;4.67;;;9.00;99.90;;;;;;493950;241;27917;-72
2024/02/15 00:20:59;;;;;;;7.30;4.10;;;9.00;99.90;;;;;;493936;241;28472;-72
2024/02/15 00:23:00;;;;;;;7.53;4.47;;;9.00;99.90;;;;;;493774;241;28497;-72
2024/02/15 00:25:01;;;;;;;7.73;4.40;;;9.00;99.90;;;;;;493985;241;27591;-72
2024/02/15 00:27:02;;;;;;;5.10;4.40;;;9.00;99.90;;;;;;493915;241;27978;-72
2024/02/15 00:29:04;;;;;;;7.37;4.03;;;9.00;99.90;;;;;;493944;241;27932;-72
2024/02/15 00:31:05;;;;;;;4.40;3.20;;;9.00;99.90;;;;;;493992;241;27740;-72
2024/02/15 00:33:07;;;;;;;5.33;3.57;;;9.00;99.90;;;;;;493966;241;28097;-74
2024/02/15 00:35:09;;;;;;;6.90;4.00;;;9.00;99.90;;;;;;493930;237;28057;-72
2024/02/15 00:37:09;;;;;;;5.73;3.80;;;9.10;99.90;;;;;;493841;241;27962;-72
2024/02/15 00:39:11;;;;;;;8.60;4.50;;;9.10;99.90;;;;;;493971;241;28355;-72
2024/02/15 00:41:11;;;;;;;7.83;4.80;;;9.10;99.90;;;;;;493910;241;27481;-72
2024/02/15 00:43:12;;;;;;;7.10;4.23;;;9.20;99.90;;;;;;493997;241;28082;-73
2024/02/15 00:45:13;;;;;;;8.03;4.53;;;9.20;99.90;;;;;;494004;241;27827;-72
2024/02/15 00:47:15;;;;;;;6.13;4.20;;;9.10;99.90;;;;;;493811;241;28009;-72
2024/02/15 00:49:16;;;;;;;6.83;4.43;;;9.20;99.90;;;;;;494034;241;27937;-73
2024/02/15 00:51:17;;;;;;;11.17;3.97;;;9.20;99.90;;;;;;494040;241;27607;-72
2024/02/15 00:53:18;;;;;;;8.53;4.37;;;9.20;99.90;;;;;;493999;241;28193;-72
2024/02/15 00:55:20;;;;;;;8.93;4.47;;;9.20;99.90;;;;;;493997;241;28381;-72
2024/02/15 00:57:21;;;;;;;5.20;4.03;;;9.20;99.90;;;;;;493941;241;28504;-72
2024/02/15 00:59:22;;;;;;;4.90;4.40;;;9.20;99.90;;;;;;494046;241;28683;-74
2024/02/15 01:01:23;;;;;;;11.50;3.80;;;9.20;99.90;;;;;;494028;241;28068;-71
2024/02/15 01:03:25;;;;;;;5.13;3.77;;;9.20;99.90;;;;;;493997;241;28086;-71
2024/02/15 01:05:26;;;;;;;5.47;3.40;;;9.20;99.90;;;;;;493987;241;27947;-72
2024/02/15 01:07:27;;;;;;;7.33;3.83;;;9.30;99.90;;;;;;493981;241;27987;-72
2024/02/15 01:09:28;;;;;;;8.60;4.80;;;9.30;99.90;;;;;;494047;241;27969;-74
2024/02/15 01:11:31;;;;;;;8.17;4.67;;;9.30;99.90;;;;;;494020;241;27948;-72
2024/02/15 01:13:31;;;;;;;6.90;3.80;;;9.20;99.90;;;;;;493808;241;27908;-72
2024/02/15 01:15:32;;;;;;;4.47;3.73;;;9.20;99.90;;;;;;493933;241;27920;-72
2024/02/15 01:17:33;;;;;;;6.40;3.83;;;9.20;99.90;;;;;;493809;241;27818;-72
2024/02/15 01:19:35;;;;;;;8.63;4.17;;;9.20;99.90;;;;;;493962;241;28073;-73
2024/02/15 01:21:36;;;;;;;7.10;4.00;;;9.20;99.90;;;;;;493961;241;28035;-72
2024/02/15 01:23:37;;;;;;;6.57;3.87;;;9.20;99.90;;;;;;493887;241;28215;-72
2024/02/15 01:25:39;;;;;;;7.60;3.40;;;9.20;99.90;;;;;;493969;241;28068;-73
2024/02/15 01:27:40;;;;;;;10.13;4.10;;;9.20;99.90;;;;;;493933;241;27960;-72
2024/02/15 01:29:42;;;;;;;6.30;3.40;;;9.20;99.90;;;;;;493884;241;28675;-72
2024/02/15 01:31:42;;;;;;;5.50;3.60;;;9.20;99.90;;;;;;493911;241;28392;-72
2024/02/15 01:33:44;;;;;;;6.10;3.20;;;9.20;99.90;;;;;;493958;241;28515;-71
2024/02/15 01:35:45;;;;;;;5.73;3.60;;;9.20;99.90;;;;;;493990;241;30497;-74
2024/02/15 01:37:46;;;;;;;4.77;3.43;;;9.20;99.90;;;;;;493917;241;27621;-71
2024/02/15 01:39:47;;;;;;;4.97;3.63;;;9.30;99.90;;;;;;493946;241;27942;-72
2024/02/15 01:41:50;;;;;;;6.90;3.50;;;9.30;99.90;;;;;;493928;241;27825;-72
2024/02/15 01:43:50;;;;;;;5.23;3.67;;;9.20;99.90;;;;;;493782;241;28066;-72
2024/02/15 01:45:51;;;;;;;9.77;4.17;;;9.30;99.90;;;;;;493987;241;27874;-74
2024/02/15 01:47:52;;;;;;;5.47;3.40;;;9.30;99.90;;;;;;493908;241;27610;-72
2024/02/15 01:49:53;;;;;;;7.20;4.47;;;9.30;99.90;;;;;;493947;241;27998;-72
2024/02/15 01:51:55;;;;;;;6.13;3.53;;;9.30;99.90;;;;;;493915;241;28108;-72
2024/02/15 01:53:56;;;;;;;4.83;3.20;;;9.30;99.90;;;;;;493967;241;27954;-72
2024/02/15 01:55:57;;;;;;;6.27;3.77;;;9.30;99.90;;;;;;493964;241;28001;-72
2024/02/15 01:57:58;;;;;;;7.77;3.53;;;9.30;99.90;;;;;;493886;241;28045;-72
2024/02/15 02:00:00;;;;;;;7.63;3.50;;;9.30;99.90;;;;;;493910;241;28519;-72
2024/02/15 02:02:01;;;;;;;6.17;3.60;;;9.30;99.90;;;;;;493929;237;28701;-73
2024/02/15 02:04:02;;;;;;;7.73;3.20;;;9.30;99.90;;;;;;493950;241;28363;-72
2024/02/15 02:06:04;;;;;;;5.07;3.20;;;9.30;99.90;;;;;;493917;241;28292;-72
2024/02/15 02:08:09;;;;;;;5.93;3.23;;;9.30;99.90;;;;;;493861;241;28440;-72
2024/02/15 02:10:06;;;;;;;7.87;3.50;;;9.30;99.90;;;;;;493593;241;28538;-73
2024/02/15 02:12:07;;;;;;;4.50;2.90;;;9.30;99.90;;;;;;493974;241;27743;-75
2024/02/15 02:14:08;;;;;;;5.70;3.30;;;9.30;99.90;;;;;;493888;241;27916;-72
2024/02/15 02:16:10;;;;;;;4.70;3.13;;;9.40;99.90;;;;;;493810;241;28018;-72
2024/02/15 02:18:11;;;;;;;4.20;2.63;;;9.30;99.90;;;;;;493808;241;28140;-72
2024/02/15 02:20:13;;;;;;;6.03;3.53;;;9.30;99.90;;;;;;493952;241;27628;-72
2024/02/15 02:22:13;;;;;;;6.03;3.70;;;9.30;99.90;;;;;;493938;241;28043;-73
2024/02/15 02:24:15;;;;;;;5.33;3.27;;;9.30;99.90;;;;;;493943;241;27966;-73
2024/02/15 02:26:16;;;;;;;7.07;3.20;;;9.30;99.90;;;;;;493897;241;27880;-72
2024/02/15 02:28:17;;;;;;;3.33;2.80;;;9.40;99.90;;;;;;493953;241;28131;-72
2024/02/15 02:30:18;;;;;;;4.20;2.80;;;9.40;99.90;;;;;;493979;241;27652;-72
2024/02/15 02:32:20;;;;;;;7.87;3.33;;;9.40;99.90;;;;;;493950;241;27795;-72
2024/02/15 02:34:21;;;;;;;7.67;3.27;;;9.30;99.90;;;;;;493971;241;27800;-71
2024/02/15 02:36:26;;;;;;;5.50;3.37;;;9.30;99.90;;;;;;493880;241;27681;-73
2024/02/15 02:38:26;;;;;;;5.17;3.10;;;9.30;99.90;;;;;;493612;241;28560;-72
2024/02/15 02:40:25;;;;;;;4.87;3.30;;;9.30;99.90;;;;;;493812;241;28341;-73
2024/02/15 02:42:26;;;;;;;6.30;3.20;;;9.40;99.90;;;;;;493947;241;28428;-72
2024/02/15 02:44:27;;;;;;;5.43;3.50;;;9.40;99.90;;;;;;493907;241;28223;-72
2024/02/15 02:46:28;;;;;;;4.00;2.90;;;9.30;99.90;;;;;;493873;241;28635;-72
2024/02/15 02:48:30;;;;;;;6.23;3.33;;;9.30;99.90;;;;;;493970;241;28010;-73
2024/02/15 02:50:31;;;;;;;8.30;3.67;;;9.30;99.90;;;;;;493960;241;28071;-72
2024/02/15 02:52:33;;;;;;;5.40;3.17;;;9.30;99.90;;;;;;493940;241;28053;-72
2024/02/15 02:54:34;;;;;;;4.37;3.00;;;9.30;99.90;;;;;;493919;241;28115;-72
2024/02/15 02:56:35;;;;;;;4.77;2.87;;;9.30;99.90;;;;;;493876;241;27877;-72
2024/02/15 02:58:36;;;;;;;6.70;3.17;;;9.30;99.90;;;;;;493931;241;27948;-74
2024/02/15 03:00:37;;;;;;;5.37;3.20;;;9.30;99.90;;;;;;493942;238;27846;-72
2024/02/15 03:02:38;;;;;;;7.27;3.27;;;9.30;99.90;;;;;;493910;241;28118;-72
2024/02/15 03:04:40;;;;;;;10.30;3.33;;;9.30;99.90;;;;;;493878;241;27970;-72
2024/02/15 03:06:42;;;;;;;2.70;2.50;;;9.30;99.90;;;;;;493918;241;28055;-72
2024/02/15 03:08:42;;;;;;;4.97;2.97;;;9.30;99.90;;;;;;493920;241;28087;-73
2024/02/15 03:10:43;;;;;;;11.30;4.57;;;9.30;99.90;;;;;;493917;237;27581;-72
2024/02/15 03:12:48;;;;;;;5.23;3.30;;;9.30;99.90;;;;;;493924;241;28364;-72
2024/02/15 03:14:49;;;;;;;8.40;3.00;;;9.30;99.90;;;;;;494002;241;27993;-71
2024/02/15 03:16:50;;;;;;;4.83;3.20;;;9.30;99.90;;;;;;493940;241;27999;-75
2024/02/15 03:18:52;;;;;;;4.97;2.80;;;9.30;99.90;;;;;;493956;241;27613;-73
2024/02/15 03:20:53;;;;;;;8.30;3.00;;;9.30;99.90;;;;;;493948;241;28163;-73
2024/02/15 03:22:54;;;;;;;3.27;2.53;;;9.20;99.90;;;;;;493921;241;28016;-73
2024/02/15 03:24:55;;;;;;;3.90;3.30;;;9.30;99.90;;;;;;494009;241;28069;-73
2024/02/15 03:26:56;;;;;;;5.53;3.10;;;9.30;99.90;;;;;;493941;241;28071;-73
2024/02/15 03:28:58;;;;;;;3.40;2.93;;;9.20;99.90;;;;;;493951;241;27828;-73
2024/02/15 03:31:00;;;;;;;4.57;2.93;;;9.30;99.90;;;;;;493955;241;28055;-73
2024/02/15 03:33:00;;;;;;;3.63;2.33;;;9.30;99.90;;;;;;493904;241;28644;-75
2024/02/15 03:35:01;;;;;;;3.77;3.07;;;9.20;99.90;;;;;;493968;241;28260;-73
2024/02/15 03:37:04;;;;;;;4.43;3.00;;;9.20;99.90;;;;;;493898;241;28369;-73
2024/02/15 03:39:06;;;;;;;3.80;2.80;;;9.20;99.90;;;;;;493920;241;28284;-73
2024/02/15 03:41:05;;;;;;;6.13;2.90;;;9.20;99.90;;;;;;493822;241;28490;-73
2024/02/15 03:43:06;;;;;;;6.30;3.30;;;9.20;99.90;;;;;;493978;241;28043;-76
2024/02/15 03:45:08;;;;;;;6.73;3.37;;;9.20;99.90;;;;;;493947;241;27953;-73
2024/02/15 03:47:09;;;;;;;6.30;2.93;;;9.20;99.90;;;;;;493873;241;27989;-73
2024/02/15 03:49:11;;;;;;;3.00;2.57;;;9.20;99.90;;;;;;493897;241;27938;-73
2024/02/15 03:51:13;;;;;;;4.73;2.70;;;9.20;99.90;;;;;;493984;237;28104;-73
2024/02/15 03:53:13;;;;;;;5.90;2.83;;;9.20;99.90;;;;;;493749;241;27975;-76
2024/02/15 03:55:15;;;;;;;3.43;2.40;;;9.20;99.90;;;;;;493941;241;27821;-72
2024/02/15 03:57:17;;;;;;;5.10;3.03;;;9.20;99.90;;;;;;493822;241;28125;-73
2024/02/15 03:59:16;;;;;;;5.57;3.00;;;9.20;99.90;;;;;;493850;241;27926;-73
2024/02/15 04:01:18;;;;;;;8.53;3.30;;;9.20;99.90;;;;;;493980;241;28287;-73
2024/02/15 04:03:19;;;;;;;6.20;3.57;;;9.30;99.90;;;;;;493956;241;27995;-73
2024/02/15 04:05:21;;;;;;;4.80;2.50;;;9.30;99.90;;;;;;493953;241;27587;-72
2024/02/15 04:07:21;;;;;;;4.50;2.70;;;9.20;99.90;;;;;;493850;241;27825;-72
2024/02/15 04:09:23;;;;;;;6.63;2.90;;;9.30;99.90;;;;;;493988;241;27988;-74
2024/02/15 04:11:24;;;;;;;4.70;3.00;;;9.30;99.90;;;;;;493964;241;28381;-72
2024/02/15 04:13:25;;;;;;;5.60;2.50;;;9.20;99.90;;;;;;493939;241;27997;-73
2024/02/15 04:15:26;;;;;;;8.97;3.17;;;9.30;99.90;;;;;;493963;241;28474;-72
2024/02/15 04:17:29;;;;;;;5.30;3.40;;;9.30;99.90;;;;;;493906;241;28617;-72
2024/02/15 04:19:29;;;;;;;6.87;2.80;;;9.20;99.90;;;;;;493898;241;28512;-73
2024/02/15 04:21:30;;;;;;;3.07;2.70;;;9.30;99.90;;;;;;493946;241;27949;-72
2024/02/15 04:23:31;;;;;;;3.63;2.70;;;9.20;99.90;;;;;;493972;241;27976;-73
2024/02/15 04:25:33;;;;;;;2.80;2.60;;;9.20;99.90;;;;;;493959;241;27924;-72
2024/02/15 04:27:34;;;;;;;3.13;2.83;;;9.20;99.90;;;;;;493896;241;27497;-72
2024/02/15 04:29:36;;;;;;;4.97;2.67;;;9.30;99.90;;;;;;494002;241;28236;-73
2024/02/15 04:31:39;;;;;;;4.50;2.27;;;9.30;99.90;;;;;;493923;239;27921;-72
2024/02/15 04:33:39;;;;;;;3.40;2.50;;;9.20;99.90;;;;;;493781;241;27912;-73
2024/02/15 04:35:39;;;;;;;5.33;2.93;;;9.20;99.90;;;;;;493825;237;28031;-72
2024/02/15 04:37:40;;;;;;;3.47;2.60;;;9.20;99.90;;;;;;493937;241;27912;-72
2024/02/15 04:39:41;;;;;;;5.93;2.67;;;9.20;99.90;;;;;;494009;241;27837;-72
2024/02/15 04:41:43;;;;;;;3.87;2.70;;;9.30;99.90;;;;;;493937;237;28102;-72
2024/02/15 04:43:46;;;;;;;3.63;2.43;;;9.30;99.90;;;;;;493956;241;27599;-73
2024/02/15 04:45:45;;;;;;;4.30;2.57;;;9.30;99.90;;;;;;493829;241;27857;-72
2024/02/15 04:47:49;;;;;;;2.80;2.60;;;9.30;99.90;;;;;;493919;237;27592;-72
2024/02/15 04:49:48;;;;;;;3.33;2.93;;;9.20;99.90;;;;;;493793;241;28316;-72
2024/02/15 04:51:49;;;;;;;4.90;2.87;;;9.20;99.90;;;;;;493961;241;28343;-72
2024/02/15 04:53:51;;;;;;;4.53;2.50;;;9.20;99.90;;;;;;493910;241;28571;-72
2024/02/15 04:55:51;;;;;;;5.40;2.80;;;9.30;99.90;;;;;;493958;241;28587;-75
2024/02/15 04:57:54;;;;;;;9.63;2.77;;;9.20;99.90;;;;;;493893;241;28261;-72
2024/02/15 04:59:54;;;;;;;5.90;2.90;;;9.20;99.90;;;;;;493859;241;27994;-72
2024/02/15 05:01:58;;;;;;;6.87;3.00;;;9.20;99.90;;;;;;493959;241;27939;-72
2024/02/15 05:03:56;;;;;;;7.67;3.07;;;9.20;99.90;;;;;;493728;241;28073;-72
2024/02/15 05:05:58;;;;;;;3.47;2.23;;;9.20;99.90;;;;;;493772;241;27907;-74
2024/02/15 05:08:01;;;;;;;3.53;2.40;;;9.20;99.90;;;;;;493950;241;28007;-72
2024/02/15 05:10:02;;;;;;;4.30;2.70;;;9.20;99.90;;;;;;493655;241;28189;-73
2024/02/15 05:12:05;;;;;;;4.00;2.93;;;9.30;99.90;;;;;;493762;237;28108;-72
2024/02/15 05:14:06;;;;;;;4.40;3.20;;;9.30;99.90;;;;;;493757;241;27918;-72
2024/02/15 05:16:05;;;;;;;3.37;2.70;;;9.20;99.90;;;;;;493705;241;27998;-73
2024/02/15 05:18:08;;;;;;;5.23;3.03;;;9.20;99.90;;;;;;493887;241;27951;-72
2024/02/15 05:20:10;;;;;;;3.43;2.37;;;9.20;99.90;;;;;;493769;237;27836;-73
2024/02/15 05:22:08;;;;;;;5.47;2.80;;;9.10;99.90;;;;;;493663;241;27968;-72
2024/02/15 05:24:09;;;;;;;9.53;3.27;;;9.10;99.90;;;;;;493995;241;28124;-72
2024/02/15 05:26:10;;;;;;;6.17;2.83;;;9.00;99.90;;;;;;493932;241;27936;-72
2024/02/15 05:28:12;;;;;;;3.57;2.77;;;9.00;99.90;;;;;;493973;241;28117;-72
2024/02/15 05:30:14;;;;;;;6.80;2.70;;;9.00;99.90;;;;;;493950;237;28409;-72
2024/02/15 05:32:14;;;;;;;5.20;2.90;;;8.90;99.90;;;;;;493914;241;28487;-73
2024/02/15 05:34:15;;;;;;;3.73;2.70;;;8.80;99.90;;;;;;493980;241;28408;-72
2024/02/15 05:36:20;;;;;;;2.47;2.27;;;8.80;99.90;;;;;;493937;241;28430;-72
2024/02/15 05:38:18;;;;;;;3.73;2.47;;;8.80;99.90;;;;;;493694;241;27597;-72
2024/02/15 05:40:19;;;;;;;3.07;2.03;;;8.80;99.90;;;;;;493938;241;27857;-73
2024/02/15 05:42:20;;;;;;;9.40;2.53;;;8.70;99.90;;;;;;493976;241;27736;-74
2024/02/15 05:44:22;;;;;;;2.90;2.47;;;8.70;99.90;;;;;;493954;241;27948;-72
2024/02/15 05:46:23;;;;;;;5.40;2.70;;;8.70;99.90;;;;;;493909;241;27852;-73
2024/02/15 05:48:24;;;;;;;5.77;2.70;;;8.70;99.90;;;;;;493894;241;28057;-72
2024/02/15 05:50:27;;;;;;;3.80;3.10;;;8.70;99.90;;;;;;493920;241;27969;-73
2024/02/15 05:52:28;;;;;;;11.20;2.90;;;8.70;99.90;;;;;;493828;241;28121;-73
2024/02/15 05:54:28;;;;;;;6.83;2.57;;;8.70;99.90;;;;;;493813;241;27951;-75
2024/02/15 05:56:29;;;;;;;7.03;2.77;;;8.70;99.90;;;;;;493806;237;28077;-73
2024/02/15 05:58:30;;;;;;;6.80;2.83;;;8.70;99.90;;;;;;493949;241;28042;-72
2024/02/15 06:00:33;;;;;;;4.97;2.77;;;8.60;99.90;;;;;;494011;241;28105;-72
2024/02/15 06:02:33;;;;;;;11.00;3.67;;;8.60;99.90;;;;;;493762;241;27635;-72
2024/02/15 06:04:34;;;;;;;4.87;3.07;;;8.50;99.90;;;;;;493937;241;28453;-72
2024/02/15 06:06:35;;;;;;;11.20;3.43;;;8.50;99.90;;;;;;493867;241;28335;-72
2024/02/15 06:08:36;;;;;;;2.67;2.47;;;8.40;99.90;;;;;;494001;241;28548;-74
2024/02/15 06:10:38;;;;;;;4.53;3.17;;;8.30;99.90;;;;;;494000;237;28302;-72
2024/02/15 06:12:39;;;;;;;3.93;3.10;;;8.30;99.90;;;;;;493972;241;28103;-74
2024/02/15 06:14:40;;;;;;;7.47;3.07;;;8.20;99.90;;;;;;493957;241;27931;-72
2024/02/15 06:16:41;;;;;;;7.20;3.10;;;8.20;99.90;;;;;;493901;241;27762;-72
2024/02/15 06:18:43;;;;;;;5.37;3.00;;;8.20;99.90;;;;;;493976;241;27842;-74
2024/02/15 06:20:46;;;;;;;8.00;3.73;;;8.20;99.90;;;;;;493975;241;28004;-73
2024/02/15 06:22:46;;;;;;;8.20;3.47;;;8.10;99.90;;;;;;493823;241;28017;-72
2024/02/15 06:24:46;;;;;;;6.43;3.27;;;8.10;99.90;;;;;;493864;241;27861;-72
2024/02/15 06:26:51;;;;;;;6.87;3.60;;;8.10;99.90;;;;;;493954;241;27826;-73
2024/02/15 06:40:26;;;;;;;4.67;2.90;;;8.10;99.90;;;;;;493965;241;28477;-72
2024/02/15 06:42:30;;;;;;;6.77;2.93;;;8.10;99.90;;;;;;493933;241;28471;-72
2024/02/15 06:44:29;;;;;;;3.40;2.70;;;8.10;99.90;;;;;;493737;241;28066;-72
2024/02/15 06:46:30;;;;;;;5.00;3.17;;;8.20;99.90;;;;;;493999;241;27901;-72
2024/02/15 06:48:31;;;;;;;5.27;2.67;;;8.20;99.90;;;;;;493997;241;28060;-72
2024/02/15 06:50:32;;;;;;;7.40;2.90;;;8.20;99.90;;;;;;493989;237;28016;-72
2024/02/15 06:52:34;;;;;;;4.83;2.60;;;8.20;99.90;;;;;;493990;241;27841;-73
2024/02/15 06:54:38;;;;;;;2.87;2.33;;;8.30;99.90;;;;;;494032;241;27960;-74
2024/02/15 06:56:39;;;;;;;11.23;3.40;;;8.30;99.90;;;;;;493990;241;28334;-73
2024/02/15 06:58:41;;;;;;;5.10;2.90;;;8.30;99.90;;;;;;493961;241;28468;-72
2024/02/15 07:00:42;;;;;;;4.03;2.63;;;8.30;99.90;;;;;;493973;241;28384;-72
2024/02/15 07:02:44;;;;;;;4.10;2.90;;;8.20;99.90;;;;;;493949;241;28169;-72
2024/02/15 07:04:44;;;;;;;4.10;3.07;;;8.20;99.90;;;;;;493965;241;27595;-72
2024/02/15 07:06:47;;;;;;;2.70;2.10;;;8.20;99.90;;;;;;493953;241;28174;-73
2024/02/15 07:08:47;;;;;;;4.00;2.63;;;8.20;99.90;;;;;;493866;241;28113;-72
2024/02/15 07:10:48;;;;;;;7.60;2.77;;;8.20;99.90;;;;;;493972;241;27980;-72
2024/02/15 07:12:49;;;;;;;3.13;2.47;;;8.20;99.90;;;;;;494013;241;28117;-72
2024/02/15 07:14:51;;;;;;;5.43;2.50;;;8.10;99.90;;;;;;494009;241;27591;-72
2024/02/15 07:16:52;;;;;;;3.30;2.73;;;8.10;99.90;;;;;;493966;241;28083;-73
2024/02/15 07:18:53;;;;;;;2.60;2.40;;;8.10;99.90;;;;;;493995;241;27817;-72
2024/02/15 07:20:55;;;;;;;5.20;3.30;;;8.10;99.90;;;;;;493996;241;28081;-73
2024/02/15 07:22:56;;;;;;;4.60;2.40;;;8.10;99.90;;;;;;493824;241;28319;-75
2024/02/15 07:24:57;;;;;;;6.23;2.90;;;8.10;99.90;;;;;;493999;241;28029;-72
2024/02/15 07:26:58;;;;;;;3.43;2.60;;;8.10;99.90;;;;;;493945;241;27982;-72
2024/02/15 07:29:00;;;;;;;3.30;2.50;;;8.20;99.90;;;;;;493982;241;28286;-72
2024/02/15 07:31:03;;;;;;;6.07;2.83;;;8.20;99.90;;;;;;493830;241;28600;-72
2024/02/15 07:33:06;;;;;;;3.30;2.57;;;8.20;99.90;;;;;;493949;241;27994;-72
2024/02/15 07:35:07;;;;;;;5.20;2.40;;;8.30;99.90;;;;;;493859;237;27978;-75
2024/02/15 07:37:07;;;;;;;3.43;2.50;;;8.40;99.90;;;;;;493833;241;28601;-72
2024/02/15 07:39:12;;;;;;;7.60;2.70;;;8.40;99.90;;;;;;493972;241;28554;-72
2024/02/15 07:41:09;;;;;;;3.30;2.47;;;8.50;99.90;;;;;;493683;241;28416;-72
2024/02/15 07:43:11;;;;;;;2.50;2.03;;;8.50;99.90;;;;;;494001;241;28566;-72
2024/02/15 07:45:12;;;;;;;4.60;2.50;;;8.60;99.90;;;;;;493988;241;28387;-74
2024/02/15 07:47:13;;;;;;;4.77;2.37;;;8.70;99.90;;;;;;493933;241;28003;-72
2024/02/15 07:49:16;;;;;;;2.60;2.40;;;8.70;99.90;;;;;;493990;241;27963;-73
2024/02/15 07:51:16;;;;;;;5.50;2.67;;;8.80;99.90;;;;;;493885;241;28133;-72
2024/02/15 07:53:17;;;;;;;3.67;2.40;;;8.90;99.90;;;;;;494029;241;27831;-72
2024/02/15 07:55:19;;;;;;;5.60;2.10;;;9.00;99.90;;;;;;493984;241;28018;-73
2024/02/15 07:57:20;;;;;;;2.90;2.47;;;9.10;99.90;;;;;;493946;241;27704;-72
2024/02/15 07:59:21;;;;;;;4.70;3.10;;;9.20;99.90;;;;;;493943;241;27992;-73
2024/02/15 08:01:22;;;;;;;4.63;2.30;;;9.30;99.90;;;;;;493894;241;28343;-75
2024/02/15 08:03:23;;;;;;;4.93;2.73;;;9.40;99.90;;;;;;493949;241;27966;-73
2024/02/15 08:05:24;;;;;;;2.97;2.30;;;9.50;99.90;;;;;;493935;241;28017;-73
2024/02/15 08:07:31;;;;;;;3.57;2.37;;;9.60;99.90;;;;;;493907;241;27697;-72
2024/02/15 08:09:27;;;;;;;4.63;2.37;;;9.70;99.90;;;;;;493520;241;27953;-72
2024/02/15 08:11:28;;;;;;;6.37;2.67;;;9.80;99.90;;;;;;494020;241;28022;-74
2024/02/15 08:13:29;;;;;;;4.03;2.27;;;9.80;99.90;;;;;;493938;241;27473;-72
2024/02/15 08:15:32;;;;;;;5.57;3.20;;;9.70;99.90;;;;;;493951;241;28539;-73
2024/02/15 08:17:32;;;;;;;8.03;2.97;;;9.80;99.90;;;;;;493828;241;28380;-73
2024/02/15 08:19:34;;;;;;;5.00;2.67;;;9.80;99.90;;;;;;493991;241;28325;-72
2024/02/15 08:21:37;;;;;;;6.80;2.93;;;9.90;99.90;;;;;;493885;237;28496;-74
2024/02/15 08:23:36;;;;;;;3.97;2.10;;;10.00;99.90;;;;;;493799;241;28456;-73
2024/02/15 08:25:37;;;;;;;6.27;2.33;;;10.00;99.90;;;;;;493939;241;27963;-73
2024/02/15 08:27:42;;;;;;;5.53;2.33;;;10.00;99.90;;;;;;493936;241;28124;-72
2024/02/15 08:29:39;;;;;;;5.07;2.10;;;10.00;99.90;;;;;;493686;241;27906;-72
2024/02/15 08:31:41;;;;;;;4.30;2.03;;;10.10;99.90;;;;;;493990;241;27844;-73
2024/02/15 08:33:45;;;;;;;2.43;1.83;;;10.10;99.90;;;;;;493920;241;27571;-72
2024/02/15 08:35:43;;;;;;;3.53;2.20;;;10.10;99.90;;;;;;493638;241;28058;-73
2024/02/15 08:37:47;;;;;;;3.70;2.00;;;10.10;99.90;;;;;;493920;241;27983;-74
2024/02/15 08:39:46;;;;;;;2.43;1.90;;;10.20;99.90;;;;;;493814;241;28132;-73
2024/02/15 08:41:47;;;;;;;3.30;1.77;;;10.20;99.90;;;;;;493974;241;27971;-73
2024/02/15 08:43:51;;;;;;;5.67;2.20;;;10.30;99.90;;;;;;493928;241;28425;-73
2024/02/15 08:45:52;;;;;;;2.53;1.90;;;10.30;99.90;;;;;;493952;241;28126;-71
2024/02/15 08:47:54;;;;;;;7.33;2.00;;;10.40;99.90;;;;;;493874;241;28514;-73
2024/02/15 08:49:55;;;;;;;2.87;1.83;;;10.50;99.90;;;;;;493980;241;28364;-75
2024/02/15 08:51:56;;;;;;;7.10;2.13;;;10.50;99.90;;;;;;493964;241;28409;-73
2024/02/15 08:53:57;;;;;;;3.60;1.80;;;10.50;99.90;;;;;;493931;241;28008;-73
2024/02/15 08:55:59;;;;;;;3.17;1.83;;;10.70;99.90;;;;;;493915;241;27857;-73
2024/02/15 08:58:00;;;;;;;3.33;1.83;;;10.70;99.90;;;;;;493925;241;28074;-72
2024/02/15 09:00:03;;;;;;;4.73;1.90;;;10.70;99.90;;;;;;493985;241;28183;-73
2024/02/15 09:02:05;;;;;;;2.80;1.80;;;10.80;99.90;;;;;;493765;237;27828;-73
2024/02/15 09:04:03;;;;;;;3.77;2.10;;;10.90;99.90;;;;;;493728;241;27996;-72
2024/02/15 09:06:05;;;;;;;2.63;1.60;;;10.90;99.90;;;;;;493919;237;28164;-73
2024/02/15 09:08:06;;;;;;;3.30;1.73;;;11.00;99.90;;;;;;493955;241;28135;-73
2024/02/15 09:10:09;;;;;;;3.13;1.80;;;11.00;99.90;;;;;;493966;241;28575;-73
2024/02/15 09:12:08;;;;;;;2.20;1.67;;;11.00;99.90;;;;;;493773;241;28676;-73
2024/02/15 09:14:10;;;;;;;2.43;2.10;;;11.00;99.90;;;;;;493903;241;28627;-73
2024/02/15 09:16:11;;;;;;;2.90;2.00;;;11.20;99.90;;;;;;493953;241;28967;-75
2024/02/15 09:18:12;;;;;;;2.57;1.90;;;11.30;99.90;;;;;;493916;241;28283;-73
2024/02/15 09:20:18;;;;;;;2.70;1.83;;;11.30;99.90;;;;;;493865;241;28200;-73
2024/02/15 09:22:18;;;;;;;2.13;1.60;;;11.40;99.90;;;;;;493775;241;28380;-73
2024/02/15 09:24:19;;;;;;;3.30;1.50;;;11.50;99.90;;;;;;493959;241;28484;-73
2024/02/15 09:26:20;;;;;;;2.50;1.63;;;11.50;99.90;;;;;;493876;241;28265;-73
2024/02/15 09:28:24;;;;;;;2.90;1.60;;;11.60;99.90;;;;;;493879;241;28764;-73
2024/02/15 09:30:27;;;;;;;5.23;1.70;;;11.60;99.90;;;;;;493938;241;28690;-73
2024/02/15 09:32:27;;;;;;;2.97;1.70;;;11.70;99.90;;;;;;493791;241;28234;-73
2024/02/15 09:34:28;;;;;;;6.70;1.97;;;11.70;99.90;;;;;;493965;241;28323;-73
2024/02/15 09:36:29;;;;;;;3.43;1.57;;;11.70;99.90;;;;;;493929;241;27967;-74
2024/02/15 09:38:31;;;;;;;5.27;1.50;;;11.80;99.90;;;;;;493926;237;28295;-73
2024/02/15 09:40:35;;;;;;;5.50;2.13;;;;;;;;;;493917;237;28414;-74
2024/02/15 09:42:34;;;;;;;4.20;1.73;;;11.80;99.90;;;;;;493839;237;27790;-73
2024/02/15 09:44:36;;;;;;;3.97;1.70;;;11.80;99.90;;;;;;493962;241;28288;-73
2024/02/15 09:46:38;;;;;;;3.90;1.60;;;11.80;99.90;;;;;;493947;241;28387;-73
2024/02/15 09:48:40;;;;;;;3.13;1.70;;;11.90;99.90;;;;;;493883;241;28701;-73
2024/02/15 09:50:42;;;;;;;4.03;1.63;;;11.90;99.90;;;;;;493870;241;28314;-75
2024/02/15 09:52:41;;;;;;;2.57;1.30;;;11.90;99.90;;;;;;493761;241;28292;-73
2024/02/15 09:54:45;;;;;;;2.90;1.50;;;11.90;99.90;;;;;;493956;241;28420;-73
2024/02/15 09:56:46;;;;;;;2.83;1.50;;;11.90;99.90;;;;;;493943;241;28742;-73
2024/02/15 09:58:47;;;;;;;3.63;1.67;;;11.90;99.90;;;;;;493923;237;29048;-73
2024/02/15 10:00:49;;;;;;;7.30;1.73;;;11.90;99.90;;;;;;493937;241;28243;-73
2024/02/15 10:02:50;;;;;;;5.90;1.83;;;12.00;99.90;;;;;;493969;241;28312;-74
2024/02/15 10:04:51;;;;;;;4.20;1.87;;;12.00;99.90;;;;;;493953;241;28879;-73
2024/02/15 10:06:52;;;;;;;2.10;1.80;;;12.00;99.90;;;;;;493931;241;28077;-73
2024/02/15 10:08:54;;;;;;;3.30;1.40;;;12.00;99.90;;;;;;493868;241;28376;-73
2024/02/15 10:10:55;;;;;;;6.00;1.67;;;12.00;99.90;;;;;;493943;241;28183;-73
2024/02/15 10:12:56;;;;;;;3.03;1.77;;;12.10;99.90;;;;;;493952;241;28500;-75
2024/02/15 10:14:57;;;;;;;3.67;1.87;;;12.20;99.90;;;;;;493953;241;28617;-73
2024/02/15 10:16:58;;;;;;;3.30;1.70;;;12.30;99.90;;;;;;493896;241;29242;-73
2024/02/15 10:19:01;;;;;;;4.80;1.63;;;;;;;;;;493933;241;29425;-73
2024/02/15 10:21:02;;;;;;;2.67;1.60;;;12.40;99.90;;;;;;493933;241;26632;-74
2024/02/15 10:23:08;;;;;;;3.83;1.50;;;12.50;99.90;;;;;;493922;241;28140;-73
2024/02/15 10:25:05;;;;;;;2.83;1.43;;;12.40;99.90;;;;;;493557;241;28859;-73
2024/02/15 10:27:10;;;;;;;2.40;1.50;;;12.50;99.90;;;;;;493858;241;28323;-75
2024/02/15 10:29:10;;;;;;;3.10;1.80;;;12.60;99.90;;;;;;493867;241;28850;-76
2024/02/15 10:31:13;;;;;;;4.60;1.70;;;12.70;99.90;;;;;;493961;241;28306;-73
2024/02/15 10:33:13;;;;;;;1.60;1.40;;;12.70;99.90;;;;;;493806;241;28086;-73
2024/02/15 10:35:15;;;;;;;2.83;1.60;;;12.70;99.90;;;;;;493946;241;28274;-73
2024/02/15 10:37:20;;;;;;;2.10;1.40;;;12.70;99.90;;;;;;493866;241;28632;-73
2024/02/15 10:39:19;;;;;;;4.00;1.63;;;12.80;99.90;;;;;;493586;241;28706;-73
2024/02/15 10:41:22;;;;;;;4.30;1.77;;;;;;;;;;493947;241;28188;-73
2024/02/15 10:43:23;;;;;;;1.80;1.43;;;12.80;99.90;;;;;;493927;241;26511;-73
2024/02/15 10:45:24;;;;;;;3.90;2.40;;;12.90;99.90;;;;;;493884;241;28294;-73
2024/02/15 10:47:25;;;;;;;3.10;1.70;;;13.00;99.90;;;;;;493914;241;28176;-73
2024/02/15 10:49:27;;;;;;;2.60;1.77;;;13.00;99.90;;;;;;493949;241;28402;-73